Latest Weather Observations for Southern Cross Airport

IDW60801

Issued at 5:23 pm WST Wednesday 19 September 2018 (issued every 10 minutes, with the page automatically refreshed every 10 minutes)

About weather observations | Map of weather stations | Latest weather observations for WA | Other Formats
Station Details ID: 012320 Name: SOUTHERN CROSS AIRFIELD Lat: -31.24 Lon: 119.36 Height: 347.4 m
Data from the previous 72 hours. | See also: Recent months at Southern Cross Airport
Date/Time
WST
Temp
°C
App
Temp
°C
Dew
Point
°C
Rel
Hum
%
Delta-T
°C
Wind Press
QNH
hPa
Press
MSL
hPa
Rain since
9am
mm
Dir  Spd
km/h
Gust
km/h
Spd
kts
Gust
kts
19/05:00pm 20.3 17.8 4.8 36 7.6 SE 7 13 4 7 1024.2 1024.0 0.0
19/04:30pm 20.6 16.5 4.6 35 7.9 SSW 15 22 8 12 1024.3 1024.1 0.0
19/04:00pm 21.1 17.4 4.6 34 8.2 SSW 13 17 7 9 1024.3 1024.1 0.0
19/03:30pm 20.4 17.5 4.4 35 7.9 S 9 17 5 9 1024.3 1024.1 0.0
19/03:00pm 20.3 17.4 4.4 35 7.8 SSE 9 19 5 10 1024.5 1024.3 0.0
19/02:30pm 20.1 16.4 4.6 36 7.6 S 13 22 7 12 1024.6 1024.4 0.0
19/02:00pm 19.6 16.5 5.6 40 7.0 SSE 11 24 6 13 1024.9 1024.7 0.0
19/01:30pm 19.5 16.7 5.2 39 7.1 SW 9 13 5 7 1025.3 1025.1 0.0
19/01:00pm 19.7 17.1 6.1 41 6.8 W 9 15 5 8 1025.7 1025.5 0.0
19/12:30pm 18.1 15.1 6.0 45 6.0 SSW 11 19 6 10 1026.3 1026.1 0.0
19/12:00pm 17.3 14.7 5.9 47 5.6 S 9 19 5 10 1026.9 1026.7 0.0
19/11:30am 17.0 14.7 5.9 48 5.5 WNW 7 15 4 8 1027.5 1027.3 0.0
19/11:00am 16.1 13.6 6.5 53 4.7 S 9 17 5 9 1027.9 1027.7 0.0
19/10:30am 15.4 13.3 6.7 56 4.3 SW 7 11 4 6 1028.3 1028.1 0.0
19/10:00am 15.4 13.3 6.7 56 4.3 SSE 7 17 4 9 1028.6 1028.4 0.0
19/09:30am 13.9 11.1 7.0 63 3.4 SE 11 17 6 9 1028.9 1028.7 0.0
19/09:00am 13.5 11.6 7.7 68 2.9 ESE 7 11 4 6 1029.0 1028.8 0.0
19/08:30am 13.0 11.1 7.5 69 2.7 ESE 7 11 4 6 1029.0 1028.8 0.0
19/08:00am 11.2 8.7 6.7 74 2.2 NE 9 11 5 6 1028.8 1028.6 0.0
19/07:30am 8.5 7.5 5.4 81 1.4 CALM 0 0 0 0 1028.7 1028.5 0.0
19/07:00am 6.7 5.1 4.4 85 1.0 NNE 2 7 1 4 1028.6 1028.4 0.0
19/06:30am 5.0 3.5 2.9 86 0.9 CALM 0 7 0 4 1028.4 1028.2 0.0
19/06:00am 4.1 0.7 1.8 85 0.9 SW 9 11 5 6 1027.9 1027.7 0.0
19/05:30am 3.8 2.1 1.7 86 0.8 CALM 0 0 0 0 1027.5 1027.3 0.0
19/05:00am 4.0 2.3 2.0 87 0.8 CALM 0 0 0 0 1027.0 1026.8 0.0
19/04:30am 3.3 1.5 1.0 85 0.9 CALM 0 0 0 0 1026.8 1026.6 0.0
19/04:00am 4.7 3.1 2.4 85 0.9 CALM 0 0 0 0 1026.6 1026.5 0.0
19/03:30am 5.6 3.8 3.3 85 1.0 SSE 2 6 1 3 1026.5 1026.3 0.0
19/03:00am 5.7 3.5 3.2 84 1.1 S 4 7 2 4 1026.5 1026.3 0.0
19/02:30am 5.8 3.1 2.8 81 1.3 SW 6 7 3 4 1026.4 1026.2 0.0
19/02:00am 8.3 6.5 5.2 81 1.4 SW 4 7 2 4 1026.4 1026.2 0.0
19/01:30am 6.9 4.2 3.7 80 1.4 W 7 9 4 5 1027.0 1026.8 0.0
19/01:00am 8.3 6.8 4.9 79 1.5 SSW 2 7 1 4 1027.1 1026.9 0.0
19/12:30am 7.1 4.8 2.8 74 1.8 S 4 7 2 4 1027.2 1027.0 0.0
19/12:00am 8.1 6.4 3.8 74 1.9 S 2 6 1 3 1027.3 1027.1 0.0
 
Date/Time
WST
Temp
°C
App
Temp
°C
Dew
Point
°C
Rel
Hum
%
Delta-T
°C
Wind Press
QNH
hPa
Press
MSL
hPa
Rain since
9am
mm
Dir  Spd
km/h
Gust
km/h
Spd
kts
Gust
kts
18/11:30pm 8.5 6.1 4.1 74 2.0 SSW 6 7 3 4 1027.2 1027.0 0.0
18/11:00pm 8.0 5.3 3.5 73 2.0 SSW 7 7 4 4 1027.2 1027.0 0.0
18/10:30pm 9.0 7.7 4.2 72 2.2 CALM 0 0 0 0 1027.3 1027.1 0.0
18/10:00pm 10.3 7.8 4.0 65 2.8 S 6 9 3 5 1027.2 1027.0 0.0
18/09:30pm 11.5 7.4 4.5 62 3.2 S 15 17 8 9 1027.4 1027.2 0.0
18/09:00pm 12.3 7.9 4.5 59 3.6 S 17 20 9 11 1027.3 1027.1 0.0
18/08:30pm 13.0 8.2 4.7 57 3.9 S 19 22 10 12 1027.3 1027.1 0.0
18/08:00pm 13.4 9.0 4.6 55 4.1 S 17 19 9 10 1027.0 1026.8 0.0
18/07:30pm 14.2 9.3 4.2 51 4.7 S 19 24 10 13 1026.5 1026.3 0.0
18/07:00pm 15.0 10.1 4.1 48 5.1 S 19 24 10 13 1026.1 1025.9 0.0
18/06:30pm 15.9 10.7 3.7 44 5.7 S 20 24 11 13 1025.6 1025.4 0.0
18/06:00pm 16.9 11.6 2.9 39 6.5 S 20 24 11 13 1025.2 1025.0 0.0
18/05:30pm 18.0 12.6 2.3 35 7.3 S 20 30 11 16 1024.9 1024.7 0.0
18/05:00pm 18.4 13.5 1.9 33 7.6 S 17 24 9 13 1024.8 1024.6 0.0
18/04:30pm 18.5 12.6 1.5 32 7.8 SSE 22 32 12 17 1024.7 1024.5 0.0
18/04:00pm 18.4 13.0 1.4 32 7.7 S 19 28 10 15 1024.6 1024.4 0.0
18/03:30pm 18.3 12.7 1.3 32 7.7 S 20 28 11 15 1024.7 1024.5 0.0
18/03:00pm 18.6 13.6 1.6 32 7.8 SSE 17 30 9 16 1024.7 1024.5 0.0
18/02:30pm 17.5 12.1 1.5 34 7.3 S 19 30 10 16 1024.9 1024.7 0.0
18/02:00pm 17.4 12.1 1.8 35 7.1 SSE 19 30 10 16 1025.1 1024.9 0.0
18/01:30pm 17.2 11.3 1.6 35 7.1 SSE 22 33 12 18 1025.4 1025.2 0.0
18/01:00pm 16.2 10.7 1.9 38 6.4 SSW 20 28 11 15 1025.8 1025.6 0.0
18/12:30pm 16.4 11.1 2.8 40 6.3 SSW 20 32 11 17 1026.3 1026.1 0.0
18/12:00pm 15.7 10.5 2.2 40 6.1 SSW 19 30 10 16 1026.9 1026.7 0.0
18/11:30am 14.7 8.6 2.6 44 5.5 S 24 35 13 19 1027.3 1027.1 0.0
18/11:00am 14.7 9.3 2.6 44 5.5 S 20 33 11 18 1027.7 1027.5 0.0
18/10:30am 13.9 7.9 3.1 48 4.9 S 24 33 13 18 1027.7 1027.5 0.0
18/10:00am 12.8 8.2 3.5 53 4.2 SSE 17 24 9 13 1028.0 1027.8 0.0
18/09:30am 12.3 7.2 4.0 57 3.8 S 20 28 11 15 1028.1 1027.9 0.0
18/09:00am 11.5 6.5 3.8 59 3.5 SSE 19 26 10 14 1028.1 1027.9 0.0
18/08:30am 10.5 6.4 4.6 67 2.7 S 15 20 8 11 1027.8 1027.6 0.0
18/08:00am 9.1 4.7 4.7 74 2.0 S 17 20 9 11 1027.8 1027.6 0.0
18/07:30am 6.7 4.6 3.9 82 1.2 SW 4 6 2 3 1027.4 1027.2 0.0
18/07:00am 5.0 3.5 2.9 86 0.9 CALM 0 0 0 0 1027.1 1026.9 0.0
18/06:30am 3.1 0.2 1.2 87 0.7 SSE 6 7 3 4 1026.6 1026.5 0.0
18/06:00am 2.7 0.9 1.1 89 0.6 CALM 0 0 0 0 1026.3 1026.1 0.0
18/05:30am 3.5 1.8 1.7 88 0.7 CALM 0 0 0 0 1025.9 1025.7 0.0
18/05:00am 3.7 1.6 1.4 85 0.9 SSE 2 6 1 3 1025.6 1025.4 0.0
18/04:30am 5.4 1.1 3.1 85 1.0 S 15 17 8 9 1025.4 1025.2 0.0
18/04:00am 6.4 2.5 3.2 80 1.4 SSE 13 17 7 9 1025.2 1025.0 0.0
18/03:30am 6.9 2.7 3.9 81 1.3 S 15 19 8 10 1025.0 1024.8 0.0
18/03:00am 6.6 2.8 3.9 83 1.2 S 13 17 7 9 1025.0 1024.8 0.0
18/02:30am 5.4 1.8 2.8 83 1.1 S 11 15 6 8 1024.8 1024.6 0.0
18/02:00am 8.0 4.3 4.2 77 1.7 S 13 15 7 8 1024.7 1024.5 0.0
18/01:30am 8.6 4.5 4.4 75 1.9 S 15 17 8 9 1024.6 1024.4 0.0
18/01:00am 9.0 4.9 4.6 74 2.0 S 15 19 8 10 1024.7 1024.5 0.0
18/12:30am 8.6 4.5 4.4 75 1.9 S 15 19 8 10 1024.5 1024.3 0.0
18/12:00am 8.6 4.1 4.0 73 2.0 S 17 19 9 10 1024.4 1024.2 0.0
 
Date/Time
WST
Temp
°C
App
Temp
°C
Dew
Point
°C
Rel
Hum
%
Delta-T
°C
Wind Press
QNH
hPa
Press
MSL
hPa
Rain since
9am
mm
Dir  Spd
km/h
Gust
km/h
Spd
kts
Gust
kts
17/11:30pm 8.5 4.3 3.8 72 2.1 S 15 17 8 9 1024.1 1023.8 0.0
17/11:00pm 8.3 4.3 3.0 69 2.3 S 13 15 7 8 1024.1 1023.8 0.0
17/10:30pm 8.9 4.9 2.9 66 2.6 S 13 17 7 9 1024.1 1023.8 0.0
17/10:00pm 9.3 4.9 2.6 63 2.9 S 15 19 8 10 1023.9 1023.6 0.0
17/09:30pm 9.5 5.3 1.9 59 3.2 S 13 15 7 8 1023.8 1023.5 0.0
17/09:00pm 10.7 6.2 2.0 55 3.7 S 15 17 8 9 1023.4 1023.2 0.0
17/08:30pm 10.7 6.4 1.0 51 4.1 S 13 15 7 8 1023.2 1023.0 0.0
17/08:00pm 10.9 7.0 1.2 51 4.1 SSW 11 15 6 8 1023.0 1022.8 0.0
17/07:30pm 12.2 7.1 0.9 46 4.8 SSW 17 22 9 12 1022.6 1022.4 0.0
17/07:00pm 12.6 7.0 1.0 45 5.0 SSW 20 26 11 14 1022.3 1022.1 0.0
17/06:30pm 13.4 6.6 1.1 43 5.3 SSW 26 33 14 18 1022.0 1021.8 0.0
17/06:00pm 14.4 7.9 0.3 38 6.1 SSW 24 33 13 18 1021.4 1021.1 0.0
17/05:30pm 15.4 8.8 -0.4 34 6.8 SSW 24 32 13 17 1021.1 1020.8 0.0
17/05:00pm 16.0 8.9 -1.1 31 7.2 SSW 26 35 14 19 1020.5 1020.3 0.0
17/04:30pm 16.5 9.0 -1.1 30 7.5 SSW 28 39 15 21 1020.3 1020.1 0.0
17/04:00pm 17.0 9.4 -2.1 27 8.0 SSW 28 35 15 19 1020.1 1019.9 0.0
17/03:30pm 17.7 10.9 -1.5 27 8.2 SSW 24 37 13 20 1020.0 1019.8 0.0
17/03:00pm 17.4 9.8 -1.8 27 8.1 SSW 28 43 15 23 1019.8 1019.6 0.0
17/02:30pm 17.4 11.1 -0.8 29 7.9 SW 22 35 12 19 1019.7 1019.5 0.0
17/02:00pm 17.0 10.4 -0.2 31 7.5 SSW 24 33 13 18 1019.6 1019.4 0.0
17/01:30pm 16.8 9.7 -0.9 30 7.6 SSW 26 37 14 20 1019.5 1019.3 0.0
17/01:00pm 16.1 10.4 -0.6 32 7.2 SSW 19 32 10 17 1019.7 1019.5 0.0
17/12:30pm 15.6 8.5 -1.0 32 7.0 SSW 26 35 14 19 1019.9 1019.7 0.0
17/12:00pm 14.9 7.5 -0.4 35 6.5 SSW 28 43 15 23 1020.1 1019.9 0.0
17/11:30am 14.7 7.8 0.2 37 6.3 S 26 39 14 21 1020.5 1020.3 0.0
17/11:00am 14.1 6.5 -1.9 33 6.5 S 28 39 15 21 1020.8 1020.5 0.0
17/10:30am 13.5 6.4 -1.6 35 6.2 S 26 37 14 20 1021.0 1020.7 0.0
17/10:00am 12.9 5.0 -1.4 37 5.8 SSW 30 41 16 22 1020.9 1020.6 0.0
17/09:30am 12.2 4.1 -0.6 41 5.3 S 32 39 17 21 1020.9 1020.6 0.0
17/09:00am 11.3 3.4 1.0 49 4.4 S 32 44 17 24 1020.8 1020.5 0.0
17/08:30am 10.5 3.3 3.1 60 3.3 SSE 30 39 16 21 1020.7 1020.4 0.0
17/08:00am 9.6 3.0 4.2 69 2.4 S 28 37 15 20 1020.2 1020.0 0.0
17/07:30am 8.7 3.9 4.7 76 1.8 S 19 26 10 14 1019.9 1019.7 0.0
17/07:00am 8.1 4.0 4.5 78 1.6 S 15 19 8 10 1019.3 1019.1 0.0
17/06:45am 7.7 4.0 4.3 79 1.5 S 13 19 7 10 1019.1 1018.8 0.0
17/06:30am 7.6 3.1 4.2 79 1.5 S 17 20 9 11 1019.0 1018.7 0.0
17/06:00am 7.1 2.2 4.1 81 1.3 S 19 26 10 14 1018.8 1018.5 0.0
17/05:40am 6.8 1.9 3.9 82 1.3 S 19 24 10 13 1018.7 1018.4 0.0
17/05:30am 6.2 2.0 3.9 85 1.0 S 15 19 8 10 1018.6 1018.3 0.0
17/05:00am 6.1 2.2 3.6 84 1.1 S 13 17 7 9 1018.1 1017.8 0.0
17/04:30am 6.1 2.2 3.4 83 1.2 S 13 17 7 9 1017.9 1017.6 0.0
17/04:00am 6.3 2.8 3.5 82 1.2 S 11 17 6 9 1017.3 1017.1 0.0
17/03:30am 6.9 2.7 3.7 80 1.4 S 15 20 8 11 1017.0 1016.8 0.0
17/03:00am 7.5 2.9 3.9 78 1.6 S 17 22 9 12 1016.8 1016.6 0.0
17/02:30am 7.6 3.4 3.6 76 1.7 S 15 20 8 11 1016.6 1016.3 0.0
17/02:00am 8.4 3.4 3.8 73 2.0 S 19 30 10 16 1016.4 1016.1 0.0
17/01:30am 8.7 3.8 3.9 72 2.1 SSW 19 24 10 13 1016.3 1016.0 0.0
17/01:00am 9.3 4.4 3.9 69 2.4 SSW 19 24 10 13 1016.1 1015.8 0.0
17/12:30am 10.0 5.1 4.0 66 2.7 S 19 24 10 13 1016.0 1015.7 0.0
17/12:00am 10.2 5.3 3.9 65 2.8 SW 19 26 10 14 1015.9 1015.6 0.0
 
Date/Time
WST
Temp
°C
App
Temp
°C
Dew
Point
°C
Rel
Hum
%
Delta-T
°C
Wind Press
QNH
hPa
Press
MSL
hPa
Rain since
9am
mm
Dir  Spd
km/h
Gust
km/h
Spd
kts
Gust
kts
16/11:30pm 10.9 5.8 3.9 62 3.2 SSW 20 30 11 16 1015.8 1015.5 0.0
16/11:00pm 11.6 5.7 3.9 59 3.5 SSW 24 33 13 18 1015.9 1015.6 0.0
16/10:30pm 12.5 6.8 2.7 51 4.4 SSW 22 33 12 18 1015.7 1015.4 0.0
16/10:00pm 13.5 7.3 -0.5 38 5.9 SW 22 32 12 17 1015.5 1015.2 0.0
16/09:30pm 14.3 8.3 -1.3 34 6.5 SW 20 28 11 15 1015.2 1014.9 0.0
16/09:00pm 15.5 9.2 -1.1 32 7.0 SW 22 33 12 18 1015.1 1014.8 0.0
16/08:30pm 16.0 9.2 -1.5 30 7.4 SW 24 32 13 17 1015.1 1014.8 0.0
16/08:00pm 16.8 9.5 -2.8 26 8.1 SW 26 35 14 19 1014.9 1014.6 0.0
16/07:30pm 15.5 9.7 -5.0 24 8.0 WSW 17 20 9 11 1014.5 1014.3 0.0
16/07:00pm 16.5 11.1 -4.7 23 8.4 WSW 15 17 8 9 1014.2 1013.9 0.0
16/06:30pm 18.2 12.7 -5.1 20 9.3 WSW 15 19 8 10 1014.0 1013.7 0.0
16/06:00pm 20.0 14.1 -5.8 17 10.3 W 17 22 9 12 1013.8 1013.5 0.0
16/05:30pm 21.9 15.4 -5.9 15 11.3 W 20 30 11 16 1013.6 1013.3 0.0

Other Formats:

Comma delimited format used in spreadsheet applications
http://www.bom.gov.au/fwo/IDW60801/IDW60801.95634.axf

JavaScript Object Notation format (JSON) in row-major order
http://www.bom.gov.au/fwo/IDW60801/IDW60801.95634.json